Forside
METAR-TAF:

METAR-TAF

Lufthavne :

Flughafen Sylt

Vesterland, Tyskland

Breddekreds: 54-55N, længdekreds: 008-21E, højde: 16 m

Aktuelle vejr

Denne rapport blev lavet for 3 timer og 2 minutter siden, kl. 17:20 UTC
Vind 29 kt fra vest med vindstød på up til 41 kt
Temperatur 6°C
Tryk 1006 hPa
Sigt: 8000 m
Nogle få skyer i en højde af 3900 ft
Spredte skyer i en højde af 5500 ft

METAR: EDXW 221720Z 27029G41KT 8000 FEW039 SCT055 06/// Q1006

Tid: 21:22 (20:22 UTC)

Vejrudsigter

Denne rapport blev lavet for 6 timer og 22 minutter siden, kl. 14:00 UTC
Foreløbig gælder fra 22 på 15 UTC til 22 på 18 UTC
Vind 30 kt fra vestsydvest med vindstød på up til 45 kt
Sigt 10 km eller mere
Brudte skyer i en højde af 4000 ft
ændring
fra 22 på 15 UTC til 22 på 18 UTC
Vind 25 kt fra vest med vindstød på up til 35 kt

TAF: EDXW 221400Z 2215/2218 24030G45KT 9999 BKN040 BECMG 2215/2218 26025G35KT

Vejrobservationer og prognoser fra mere end 4000 lufthavne (METAR og TAF).

De gule og røde prikker repræsenterer de meteorologiske stationer.

Flyt musen over at se navnet på stationen.

Så klik over at se vejr observationer og prognoser.

At skifte det kort: Klik på de grønne knapper med et sort kors for at zoome ind; på den grønne knap med en bindestreg for at zoome ud; eller på de grønne pile for tilstødende kort.


METAR-TAF: